Latest Coastal Weather Observations for Cocos Island

IDW60701

Issued at 5:25 pm WST Friday 18 April 2014 (issued every 10 minutes, with the page automatically refreshed every 10 minutes)

About coastal observations | Map of coastal stations | Coastal observations for WA | Marine services | Other Formats
Station Details ID: 200284 Name: COCOS ISLAND AIRPORT Lat: -12.19 Lon: 96.83 Height: 3.0 m
Data from the previous 72 hours. | See also: Recent months at Cocos Island
Date/Time
WST
Temp

°C
Wind Pressure Rain
since 9am
mm
Weather Cloud Vis
km
Sea
Height
m
Swell
Dir
 
Speed
knots
Gust
knots
hPa Trend Height
m
Period
s
Dir
18/05:14pm 26.1 E 13 18 1008.6 - 13.0 Showers Partly cloudy 7 - - - -
18/05:00pm 26.5 N 5 7 1008.6 - 13.0 Showers Cloudy 20 - - - -
18/04:50pm 25.9 NNE 7 12 1008.6 - 13.0 Showers Mostly clear 7 - - - -
18/04:34pm 25.2 NE 7 8 1008.6 - 11.2 Showers Mostly clear 1 - - - -
18/04:30pm 25.4 NNE 17 24 1008.7 - 7.8 Showers Mostly clear 0.5 - - - -
18/04:26pm 26.1 NNW 10 15 1008.4 - 4.4 Showers Mostly clear 1 - - - -
18/04:00pm 26.9 NNW 10 15 1008.4 - 2.4 Showers Partly cloudy 5 - - - -
18/03:48pm 29.1 ENE 8 9 1008.3 - 2.4 Showers Mostly clear 2 - - - -
18/03:40pm 27.7 E 10 16 1008.5 - 2.4 Showers Mostly clear 4 - - - -
18/03:30pm 26.3 E 15 18 1008.6 - 2.2 Showers Partly cloudy 2 - - - -
18/03:19pm 28.9 NE 17 28 1008.6 - 0.0 Showers Partly cloudy 2 - - - -
18/03:00pm 30.2 NE 15 17 1008.8 - 0.0 - Mostly clear 10 - - - -
18/02:30pm 30.4 NE 16 18 1008.9 - 0.0 - Mostly clear 10 - - - -
18/02:23pm 30.2 ENE 15 18 1009.0 - 0.0 Showers Mostly clear 10 - - - -
18/02:12pm 29.8 NE 12 14 1009.1 - 0.0 Showers Mostly clear 2 - - - -
18/02:00pm 30.4 ENE 13 17 1009.2 - 0.0 Distant precip. Mostly cloudy 20 - - - -
18/01:30pm 30.3 ENE 15 18 1009.2 - 0.0 - Partly cloudy 10 - - - -
18/01:00pm 30.2 ENE 15 17 1009.3 - 0.0 - Mostly clear 10 - - - -
18/12:30pm 29.9 ENE 14 16 1009.5 - 0.0 - Partly cloudy 10 - - - -
18/12:00pm 29.9 ENE 13 14 1010.0 - 0.0 - Mostly clear 10 - - - -
18/11:30am 29.8 ENE 12 15 1010.1 - 0.0 - Mostly clear 10 - - - -
18/11:00am 29.7 ENE 11 13 1010.4 - 17.4 Distant precip. Mostly cloudy 23 - - - -
18/10:30am 28.6 E 7 8 1010.3 - 17.4 - Partly cloudy 10 - - - -
18/10:00am 28.1 E 8 11 1010.0 - 17.4 - Partly cloudy 10 - - - -
18/09:30am 27.6 E 10 12 1009.9 - 17.4 - Partly cloudy 10 - - - -
18/09:00am 27.4 E 11 17 1009.5 - 17.4 - Partly cloudy 10 - - - -
18/08:30am 26.9 E 9 12 1009.3 - 17.4 - Mostly clear 10 - - - -
18/08:00am 26.8 ENE 16 21 1009.1 - 17.4 Showers Mostly cloudy 12 - - - -
18/07:43am 26.9 N 7 11 1009.1 - 17.0 Showers Partly cloudy 7 - - - -
18/07:30am 27.2 ENE 8 19 1008.7 - 17.0 Showers Partly cloudy 2 - - - -
18/07:00am 27.2 NNE 11 13 1008.3 - 17.0 Showers Partly cloudy 8 - - - -
18/06:42am 26.8 ENE 12 14 1008.0 - 17.0 - Partly cloudy 10 - - - -
18/06:30am 26.5 ENE 12 14 1007.9 - 17.0 - Partly cloudy 3 - - - -
18/06:10am 27.2 ENE 11 12 1007.8 - 12.0 - Partly cloudy 7 - - - -
18/06:00am 27.5 NNE 7 9 1007.7 - 11.2 - - 10 - - - -
18/05:30am 27.3 NNE 7 8 1007.7 - 11.2 - - 10 - - - -
18/05:00am 26.9 ENE 10 12 1007.5 - 11.2 - Mostly clear 10 - - - -
18/04:39am 26.3 NE 9 13 1007.7 - 11.2 - Partly cloudy 10 - - - -
18/04:30am 25.5 NE 8 11 1007.8 - 11.2 - Partly cloudy 8 - - - -
18/04:11am 25.8 NNE 16 25 1007.9 - 8.0 - Partly cloudy 7 - - - -
18/04:09am 26.2 N 15 25 1007.8 - 7.4 - Partly cloudy 10 - - - -
18/04:00am 27.4 ENE 9 11 1007.8 - 7.4 - - 10 - - - -
18/03:30am 27.3 ENE 9 11 1007.9 - 7.4 - - 10 - - - -
18/03:00am 27.5 ENE 11 12 1008.3 - 7.4 - - 10 - - - -
18/02:30am 27.5 ENE 11 15 1008.5 - 7.4 - - 10 - - - -
18/02:00am 27.7 ENE 12 14 1008.7 - 7.4 - - 10 - - - -
18/01:30am 27.7 ENE 13 15 1008.9 - 7.4 - - 10 - - - -
18/01:00am 27.8 NE 12 14 1009.4 - 7.4 - - 10 - - - -
18/12:30am 27.7 NE 11 13 1009.8 - 7.4 - - 10 - - - -
18/12:00am 27.9 NE 11 13 1009.8 - 7.4 - Partly cloudy 10 - - - -
 
Date/Time
WST
Temp

°C
Wind Pressure Rain
since 9am
mm
Weather Cloud Vis
km
Sea
Height
m
Swell
Dir
 
Speed
knots
Gust
knots
hPa Trend Height
m
Period
s
Dir
17/11:30pm 27.5 NE 11 13 1009.7 - 7.4 - Partly cloudy 10 - - - -
17/11:00pm 27.0 NNE 12 15 1010.0 - 7.4 - - 10 - - - -
17/10:31pm 26.6 NNE 14 17 1009.8 - 7.4 - Partly cloudy 10 - - - -
17/10:30pm 26.6 NNE 14 17 1009.9 - 7.4 - Partly cloudy 10 - - - -
17/10:09pm 26.6 NNE 17 23 1009.6 - 6.6 - Partly cloudy 5 - - - -
17/10:00pm 27.0 NNE 15 20 1009.5 - 6.0 - Partly cloudy 10 - - - -
17/09:30pm 28.0 NE 15 17 1009.1 - 6.0 - Partly cloudy 10 - - - -
17/09:00pm 28.0 ENE 16 18 1008.6 - 6.0 - Partly cloudy 10 - - - -
17/08:30pm 27.9 ENE 15 17 1008.3 - 6.0 - - 10 - - - -
17/08:00pm 28.0 ENE 16 18 1008.1 - 6.0 - Mostly clear 10 - - - -
17/07:30pm 27.6 E 15 19 1007.5 - 6.0 - - 10 - - - -
17/07:15pm 27.4 E 14 17 1007.5 - 6.0 - - 10 - - - -
17/07:00pm 27.2 E 13 16 1007.5 - 6.0 - - 3 - - - -
17/06:54pm 27.4 E 12 15 1007.5 - 4.8 - - 7 - - - -
17/06:30pm 27.0 ENE 12 14 1007.7 - 4.0 - Partly cloudy 10 - - - -
17/06:00pm 27.3 NE 15 18 1007.4 - 4.0 - Partly cloudy 10 - - - -
17/05:30pm 27.0 NE 17 19 1007.2 - 3.4 Rain Mostly clear 4 - - - -
17/05:00pm 26.9 NE 19 23 1007.4 - 1.4 Showers Cloudy 3 - - - -
17/04:43pm 28.0 ENE 19 24 1007.3 - 1.2 Showers Mostly clear 3 - - - -
17/04:30pm 27.4 ENE 21 27 1007.3 - 1.2 Showers Mostly cloudy 7 - - - -
17/04:22pm 27.7 ENE 17 23 1007.1 - 1.2 Showers Mostly cloudy 4 - - - -
17/04:00pm 28.5 ENE 19 22 1007.4 - 1.2 - Partly cloudy 10 - - - -
17/03:30pm 28.3 ENE 22 27 1007.5 - 1.2 - Partly cloudy 10 - - - -
17/03:00pm 28.1 ENE 20 23 1007.4 - 1.2 Showers Mostly clear 8 - - - -
17/02:30pm 27.5 ENE 16 20 1007.4 - 1.2 Showers Mostly clear 4 - - - -
17/02:10pm 27.5 NE 19 23 1007.5 - 0.4 Showers Mostly clear 4 - - - -
17/02:00pm 28.9 E 18 22 1007.6 - 0.4 Recent precip. Mostly cloudy 20 - - - -
17/01:30pm 29.4 E 17 21 1007.8 - 0.4 - Partly cloudy 10 - - - -
17/01:22pm 28.7 E 16 22 1007.9 - 0.4 - Partly cloudy 7 - - - -
17/01:00pm 29.2 E 17 21 1008.1 - 0.4 - Partly cloudy 10 - - - -
17/12:30pm 29.0 E 17 21 1008.4 - 0.4 - Partly cloudy 10 - - - -
17/12:00pm 29.0 E 15 19 1008.7 - 0.4 - Partly cloudy 10 - - - -
17/11:30am 28.4 E 15 19 1008.7 - 0.4 - Partly cloudy 10 - - - -
17/11:00am 28.6 E 14 18 1008.6 - 78.2 Fine Mostly cloudy 25 - - - -
17/10:30am 28.3 E 14 18 1008.9 - 78.2 - Partly cloudy 10 - - - -
17/10:00am 27.8 ESE 14 18 1009.0 - 78.2 - Mostly clear 10 - - - -
17/09:30am 27.4 ESE 16 21 1008.8 - 78.2 Showers Partly cloudy 10 - - - -
17/09:00am 26.9 ESE 13 18 1008.6 - 78.2 - Mostly clear 10 - - - -
17/08:30am 26.6 E 11 15 1007.9 - 78.2 - Mostly clear 10 - - - -
17/08:00am 26.4 E 10 15 1008.0 - 78.2 Recent precip. Mostly cloudy 20 - - - -
17/07:30am 26.1 E 14 19 1007.7 - 78.2 - Mostly clear 10 - - - -
17/07:00am 25.8 E 16 21 1007.4 - 78.2 Rain Mostly clear 10 - - - -
17/06:30am 25.9 E 19 25 1006.8 - 78.2 - Partly cloudy 5 - - - -
17/06:25am 26.0 E 15 25 1006.9 - 78.0 - Partly cloudy 6 - - - -
17/06:00am 25.8 E 15 19 1006.8 - 77.6 - Partly cloudy 10 - - - -
17/05:56am 25.8 E 15 20 1006.8 - 77.6 - Partly cloudy 10 - - - -
17/05:35am 25.7 E 15 21 1006.7 - 77.0 - Partly cloudy 7 - - - -
17/05:30am 25.7 E 15 19 1006.9 - 76.8 - Partly cloudy 9 - - - -
17/05:00am 26.0 E 16 21 1007.6 - 76.0 - Cloudy 9 - - - -
17/04:53am 26.1 ESE 16 21 1007.7 - 76.0 - Partly cloudy 10 - - - -
17/04:40am 26.2 ESE 15 21 1007.8 - 75.8 - Partly cloudy 10 - - - -
17/04:30am 26.1 ESE 13 19 1007.9 - 75.8 - Partly cloudy 10 - - - -
17/04:05am 26.0 ESE 11 15 1007.8 - 75.8 - Partly cloudy 10 - - - -
17/04:00am 25.9 E 11 14 1007.8 - 75.8 - Partly cloudy 10 - - - -
17/03:50am 25.9 E 12 15 1007.9 - 75.2 - Partly cloudy 7 - - - -
17/03:30am 26.0 ESE 15 19 1007.7 - 74.8 - Partly cloudy 10 - - - -
17/03:00am 26.0 ESE 13 16 1007.9 - 74.6 - - 10 - - - -
17/02:30am 26.0 ESE 14 19 1008.1 - 74.6 - Partly cloudy 10 - - - -
17/02:00am 26.1 ESE 13 16 1008.7 - 74.6 - Partly cloudy 10 - - - -
17/01:30am 25.7 ESE 9 11 1009.2 - 74.6 - Partly cloudy 10 - - - -
17/01:00am 25.3 ESE 11 15 1009.6 - 74.2 - Partly cloudy 9 - - - -
17/12:59am 25.3 ESE 11 14 1009.7 - 74.2 - Partly cloudy 10 - - - -
17/12:33am 25.3 ESE 15 20 1009.4 - 74.0 - Partly cloudy 7 - - - -
17/12:30am 25.5 ESE 15 18 1009.4 - 73.8 - Partly cloudy 10 - - - -
17/12:20am 25.6 SE 13 19 1009.3 - 73.6 - Partly cloudy 10 - - - -
17/12:00am 25.4 SE 14 19 1009.6 - 73.4 - Partly cloudy 4 - - - -
 
Date/Time
WST
Temp

°C
Wind Pressure Rain
since 9am
mm
Weather Cloud Vis
km
Sea
Height
m
Swell
Dir
 
Speed
knots
Gust
knots
hPa Trend Height
m
Period
s
Dir
16/11:56pm 25.6 ESE 15 19 1009.5 - 73.0 - Partly cloudy 7 - - - -
16/11:30pm 26.4 SSE 11 14 1009.3 - 72.6 - Partly cloudy 10 - - - -
16/11:00pm 26.4 SE 9 13 1008.9 - 72.6 - - 10 - - - -
16/10:30pm 26.7 SSE 9 12 1009.0 - 72.4 - Partly cloudy 10 - - - -
16/10:00pm 26.5 SSE 12 16 1008.9 - 72.4 - - 10 - - - -
16/09:30pm 26.0 SSE 10 12 1008.7 - 72.4 - Partly cloudy 10 - - - -
16/09:00pm 26.1 SE 8 10 1008.3 - 72.4 - Partly cloudy 10 - - - -
16/08:56pm 26.0 ESE 8 10 1008.3 - 72.4 - Partly cloudy 10 - - - -
16/08:46pm 26.2 SE 7 9 1008.1 - 72.4 - Partly cloudy 10 - - - -
16/08:31pm 26.0 SSE 8 11 1008.0 - 72.4 - Partly cloudy 10 - - - -
16/08:30pm 26.0 SSE 9 13 1008.0 - 72.4 - Partly cloudy 10 - - - -
16/08:18pm 25.9 SSE 9 11 1007.7 - 72.2 - Partly cloudy 10 - - - -
16/08:15pm 26.0 SSE 10 13 1007.7 - 72.2 - Partly cloudy 10 - - - -
16/08:00pm 25.9 SSE 11 15 1007.3 - 71.8 - Cloudy 10 - - - -
16/07:59pm 26.0 SSE 11 14 1007.3 - 71.8 - Partly cloudy 10 - - - -
16/07:30pm 25.5 SSE 11 15 1007.2 - 71.4 - Partly cloudy 10 - - - -
16/07:02pm 25.1 SSE 10 13 1007.5 - 70.8 - - 10 - - - -
16/07:00pm 25.1 SSE 10 13 1007.5 - 70.8 - - 10 - - - -
16/06:39pm 25.1 ESE 7 10 1007.5 - 70.2 - Partly cloudy 6 - - - -
16/06:30pm 25.1 ESE 5 6 1007.5 - 69.2 - Partly cloudy 8 - - - -
16/06:00pm 24.9 NE 13 15 1007.3 - 67.4 - Partly cloudy 6 - - - -
16/05:30pm 25.1 NNE 10 11 1007.6 - 64.2 - Partly cloudy 4 - - - -
16/05:00pm 25.5 ENE 14 17 1007.9 - 61.6 - Cloudy 6 - - - -
16/04:30pm 25.5 ENE 17 20 1007.7 - 60.4 - Partly cloudy 5 - - - -
16/04:08pm 24.4 E 16 25 1008.1 - 56.4 - Partly cloudy 2 - - - -
16/04:00pm 25.2 E 15 20 1007.9 - 52.4 - Partly cloudy 3 - - - -
16/03:50pm 25.1 E 12 16 1008.1 - 51.0 - Partly cloudy 2 - - - -
16/03:47pm 25.1 E 13 17 1008.2 - 49.6 - Partly cloudy 2 - - - -
16/03:30pm 25.1 E 19 24 1008.3 - 46.0 - Partly cloudy 1 - - - -
16/03:18pm 25.4 E 12 15 1008.3 - 41.2 - Partly cloudy 3 - - - -
16/03:00pm 25.1 ESE 22 27 1008.3 - 37.4 - - 3 - - - -
16/02:36pm 25.7 ESE 23 35 1008.1 - 36.4 - Partly cloudy 4 - - - -
16/02:30pm 25.4 ESE 22 27 1008.1 - 36.2 - Partly cloudy 6 - - - -
16/02:29pm 25.4 ESE 23 27 1008.1 - 36.2 - Partly cloudy 7 - - - -
16/02:14pm 26.1 E 19 28 1008.3 - 35.6 - Partly cloudy 6 - - - -
16/02:13pm 26.3 E 19 25 1008.3 - 35.4 - Partly cloudy 10 - - - -
16/02:00pm 25.8 ENE 14 17 1008.5 - 35.0 - Cloudy 6 - - - -
16/01:30pm 25.6 E 26 35 1009.4 - 27.2 - Partly cloudy 0.6 - - - -
16/01:25pm 26.2 E 27 35 1009.4 - 22.6 - Partly cloudy 3 - - - -
16/01:24pm 26.9 E 27 35 1009.3 - 21.6 - Partly cloudy 10 - - - -
16/01:07pm 26.8 SE 17 24 1009.1 - 21.4 - Partly cloudy 10 - - - -
16/01:05pm 26.6 SE 17 24 1009.1 - 21.4 - Partly cloudy 10 - - - -
16/01:00pm 26.2 SSE 18 25 1009.0 - 21.4 - Partly cloudy 10 - - - -
16/12:43pm 25.1 SE 24 34 1009.4 - 20.4 - Partly cloudy 1 - - - -
16/12:30pm 25.1 SE 28 37 1010.0 - 14.6 - Partly cloudy 1 - - - -
16/12:26pm 25.0 SE 13 30 1009.8 - 13.0 - Partly cloudy 2 - - - -
16/12:11pm 26.0 E 17 32 1009.8 - 2.4 - Partly cloudy 4 - - - -
16/12:10pm 26.5 E 16 29 1009.5 - 0.4 - Partly cloudy 8 - - - -
16/12:00pm 28.2 SE 15 21 1009.2 - 0.0 - Partly cloudy 10 - - - -
16/11:32am 27.5 SE 16 22 1009.9 - 0.0 - Partly cloudy 10 - - - -
16/11:00am 26.0 SE 16 23 1010.3 - 40.0 Recent precip. Cloudy 8 - - - -
16/10:48am 25.6 SE 18 23 1010.6 - 40.0 Showers Partly cloudy 2 - - - -
16/10:30am 25.7 ESE 23 34 1010.3 - 29.6 Showers Mostly cloudy 0.3 - - - -
16/10:27am 25.6 ESE 22 34 1010.2 - 26.6 Showers Mostly cloudy 0.5 - - - -
16/10:23am 25.8 ESE 27 34 1010.4 - 26.4 Showers Partly cloudy 2 - - - -
16/10:21am 26.8 SSE 15 28 1010.4 - 26.4 Showers Partly cloudy 2 - - - -
16/10:00am 26.7 SSE 16 24 1010.1 - 26.2 Showers Mostly clear 2 - - - -
16/09:57am 27.5 SSE 15 22 1010.0 - 25.2 Showers Mostly clear 0.8 - - - -
16/09:52am 27.4 SSE 16 24 1010.0 - 25.2 - Partly cloudy 10 - - - -
16/09:30am 26.5 SSE 15 24 1010.0 - 25.0 - Partly cloudy 6 - - - -
16/09:22am 26.2 SSE 19 25 1010.1 - 25.0 - Partly cloudy 7 - - - -
16/09:08am 27.4 SSE 15 25 1009.9 - 24.8 - Partly cloudy 10 - - - -
16/09:00am 27.3 SSE 15 20 1009.9 - 24.8 - Partly cloudy 10 - - - -
16/08:56am 27.2 SSE 15 20 1009.8 - 24.8 - Partly cloudy 10 - - - -
16/08:32am 26.3 SE 18 30 1009.5 - 24.2 - Partly cloudy 7 - - - -
16/08:30am 26.7 SE 16 30 1009.5 - 24.2 - Partly cloudy 9 - - - -
16/08:28am 27.0 SE 15 26 1009.5 - 24.2 - Partly cloudy 9 - - - -
16/08:00am 27.6 SE 12 16 1009.4 - 23.6 - Cloudy 10 - - - -
16/07:30am 27.3 SE 13 18 1009.1 - 23.0 - Partly cloudy 10 - - - -
16/07:00am 27.6 SE 13 17 1008.9 - 22.0 - - 8 - - - -
16/06:30am 27.0 ESE 8 10 1008.8 - 21.6 - Partly cloudy 10 - - - -
16/06:00am 26.4 ESE 10 14 1008.7 - 21.6 - - 10 - - - -
16/05:30am 26.8 SE 13 19 1008.8 - 21.2 - Partly cloudy 10 - - - -
16/05:00am 27.5 SE 9 12 1009.0 - 21.2 - - 10 - - - -
16/04:30am 27.2 ESE 8 10 1009.3 - 21.2 - - 10 - - - -
16/04:00am 27.2 ESE 11 14 1009.4 - 21.2 - - 10 - - - -
16/03:30am 27.0 ESE 10 13 1009.7 - 21.2 - - 10 - - - -
16/03:00am 27.2 E 10 15 1010.2 - 21.2 - - 10 - - - -
16/02:30am 27.1 E 10 12 1010.3 - 21.2 - Partly cloudy 10 - - - -
16/02:00am 27.0 ENE 9 13 1010.9 - 21.2 - Mostly clear 10 - - - -
16/01:30am 27.2 ENE 9 12 1011.4 - 21.2 - Partly cloudy 10 - - - -
16/01:00am 27.6 E 10 12 1011.7 - 21.0 - Partly cloudy 10 - - - -
16/12:30am 27.3 E 16 18 1011.9 - 21.0 - - 10 - - - -
16/12:00am 28.1 E 12 15 1011.8 - 21.0 - - 10 - - - -
 
Date/Time
WST
Temp

°C
Wind Pressure Rain
since 9am
mm
Weather Cloud Vis
km
Sea
Height
m
Swell
Dir
 
Speed
knots
Gust
knots
hPa Trend Height
m
Period
s
Dir
15/11:30pm 28.2 E 12 16 1012.0 - 21.0 - Partly cloudy 10 - - - -
15/11:00pm 28.6 E 12 16 1012.1 - 21.0 - - 10 - - - -
15/10:30pm 28.9 ENE 14 17 1011.7 - 21.0 - Partly cloudy 10 - - - -
15/10:00pm 27.9 ENE 17 20 1011.2 - 21.0 - Partly cloudy 10 - - - -
15/09:30pm 28.4 E 14 16 1011.0 - 21.0 - Partly cloudy 10 - - - -
15/09:00pm 28.5 ESE 14 22 1010.6 - 21.0 - Partly cloudy 10 - - - -
15/08:30pm 28.9 ESE 9 11 1010.2 - 20.8 - Partly cloudy 10 - - - -
15/08:00pm 28.5 ESE 7 10 1010.0 - 20.8 - Mostly clear 10 - - - -
15/07:30pm 28.3 ESE 7 9 1009.7 - 20.8 - - 10 - - - -
15/07:00pm 27.6 ENE 8 9 1009.7 - 20.8 - - 10 - - - -

Other Formats:

Comma delimited format used in spreadsheet applications
http://www.bom.gov.au/fwo/IDW60701/IDW60701.96996.axf

JavaScript Object Notation format (JSON) in row-major order
http://www.bom.gov.au/fwo/IDW60701/IDW60701.96996.json